Terminal Aerodrome Forecast
Issued by NWS

Home | Current Version | Previous Version | Text Only | Print | Product List | Glossary On
Versions: 1 2 3 4 5 6 7 8 9 10 11 12 13 14 15 16 17 18 19 20 21 22 23 24 25 26 27 28 29 30 31
192
FTUS46 KLOX 260847 AAA
TAFLAX
TAF AMD
KLAX 260847Z 2609/2712 25007KT P6SM FEW008 SCT150
     FM261100 VRB03KT P6SM BKN015 BKN150
     FM261800 25012KT P6SM SCT020 BKN150
     FM270500 26006KT P6SM BKN025=

USA.gov is the U.S. government's official web portal to all federal, state and local government web resources and services.